Latest Coastal Weather Observations for Hamilton Island

IDQ60701

Issued at 7:12 am EST Saturday 18 November 2017 (issued every 10 minutes, with the page automatically refreshed every 10 minutes)

About coastal observations | Map of coastal stations | Coastal observations for QLD | Marine services | Other Formats
Station Details ID: 033106 Name: HAMILTON ISLAND AIRPORT Lat: -20.37 Lon: 148.95 Height: 58.66 m
Data from the previous 72 hours. | See also: Recent months at Hamilton Island
Date/Time
EST
Temp
°C
Wind Pressure Rain since
9am
mm
Weather Cloud Vis
km
Sea
Height
m
Swell
Dir  Spd
kts
Gust
kts
hPa Trend Height
m
Period
s
Dir
18/07:00am 25.7 ESE 13 15 1013.4 - 0.0 - Partly cloudy 10 - - - -
18/06:30am 25.4 ESE 12 15 1013.0 - 0.0 - Partly cloudy 10 - - - -
18/06:00am 24.6 ESE 14 16 1012.5 - 0.0 - Mostly clear 10 - - - -
18/05:30am 24.0 ESE 13 15 1012.3 - 0.0 - Partly cloudy 10 - - - -
18/05:00am 23.9 ESE 14 17 1011.9 - 0.0 - Partly cloudy 10 - - - -
18/04:30am 23.9 ESE 14 17 1011.7 - 0.0 - Partly cloudy 10 - - - -
18/04:00am 24.0 ESE 15 17 1011.7 - 0.0 - Partly cloudy 10 - - - -
18/03:30am 24.1 E 16 17 1011.6 - 0.0 - Partly cloudy 10 - - - -
18/03:00am 24.1 ESE 16 19 1011.5 - 0.0 - Cloudy 10 - - - -
18/02:30am 24.1 ESE 17 19 1011.5 - 0.0 - Partly cloudy 10 - - - -
18/02:00am 24.0 ESE 15 18 1011.8 - 0.0 - Partly cloudy 10 - - - -
18/01:30am 24.0 ESE 13 17 1012.3 - 0.0 - Partly cloudy 10 - - - -
18/01:00am 24.0 ESE 12 14 1012.7 - 0.0 - - 10 - - - -
18/12:30am 24.3 E 15 17 1013.1 - 0.0 - Partly cloudy 10 - - - -
18/12:00am 24.4 ESE 15 18 1013.3 - 0.0 - Mostly cloudy 10 - - - -
 
Date/Time
EST
Temp
°C
Wind Pressure Rain since
9am
mm
Weather Cloud Vis
km
Sea
Height
m
Swell
Dir  Spd
kts
Gust
kts
hPa Trend Height
m
Period
s
Dir
17/11:30pm 24.4 ESE 14 16 1013.7 - 0.0 - Partly cloudy 10 - - - -
17/11:00pm 24.4 ESE 15 17 1013.8 - 0.0 - - 10 - - - -
17/10:30pm 24.3 ESE 15 19 1014.0 - 0.0 - Partly cloudy 10 - - - -
17/10:00pm 24.4 E 17 19 1013.9 - 0.0 - Partly cloudy 10 - - - -
17/09:30pm 24.4 ESE 19 22 1013.4 - 0.0 - Partly cloudy 10 - - - -
17/09:00pm 24.4 ESE 18 21 1013.3 - 0.0 - Partly cloudy 10 - - - -
17/08:30pm 24.4 ESE 19 22 1013.4 - 0.0 - Partly cloudy 10 - - - -
17/08:00pm 24.4 ESE 20 22 1013.2 - 0.0 - Partly cloudy 10 - - - -
17/07:30pm 24.5 ESE 18 21 1013.2 - 0.0 - Partly cloudy 10 - - - -
17/07:00pm 24.5 ESE 18 22 1012.9 - 0.0 - Partly cloudy 10 - - - -
17/06:30pm 24.5 ESE 19 23 1012.7 - 0.0 - Partly cloudy 10 - - - -
17/06:00pm 24.7 ESE 19 21 1012.8 - 0.0 - Cloudy 10 - - - -
17/05:30pm 25.0 ESE 18 22 1012.7 - 0.0 - Partly cloudy 10 - - - -
17/05:00pm 24.9 ESE 19 23 1012.3 - 0.0 - Partly cloudy 10 - - - -
17/04:30pm 25.4 ESE 19 22 1012.2 - 0.0 - Partly cloudy 10 - - - -
17/04:00pm 25.6 ESE 17 20 1012.4 - 0.0 - - 10 - - - -
17/03:30pm 25.9 ESE 18 21 1012.5 - 0.0 - - 10 - - - -
17/03:00pm 26.2 ESE 18 21 1013.0 - 0.0 - Mostly clear 10 - - - -
17/02:30pm 25.8 ESE 19 22 1012.9 - 0.0 - Partly cloudy 10 - - - -
17/02:00pm 27.0 ESE 19 21 1013.1 - 0.0 - Partly cloudy 10 - - - -
17/01:30pm 26.8 ESE 16 19 1013.7 - 0.0 - Partly cloudy 10 - - - -
17/01:00pm 26.8 ESE 16 19 1013.9 - 0.0 - - 10 - - - -
17/12:30pm 26.8 ESE 16 19 1014.1 - 0.0 - Partly cloudy 10 - - - -
17/12:00pm 26.5 ESE 17 19 1014.4 - 0.0 - - 10 - - - -
17/11:30am 27.2 ESE 17 19 1014.7 - 0.0 - - 10 - - - -
17/11:00am 27.1 ESE 17 19 1014.9 - 0.0 - - 10 - - - -
17/10:30am 26.5 ESE 15 18 1015.1 - 0.0 - - 10 - - - -
17/10:00am 26.7 E 16 19 1015.1 - 0.0 - - 10 - - - -
17/09:30am 26.6 ESE 16 20 1015.1 - 0.0 - - 10 - - - -
17/09:00am 26.6 ESE 17 20 1015.0 - 0.0 - - 10 - - - -
17/08:30am 25.8 ESE 18 20 1014.5 - 0.0 - Partly cloudy 10 - - - -
17/08:00am 25.3 ESE 15 17 1014.3 - 0.0 - Partly cloudy 10 - - - -
17/07:30am 25.6 ESE 14 17 1014.0 - 0.0 - Partly cloudy 10 - - - -
17/07:00am 25.4 ESE 17 19 1013.9 - 0.0 - Partly cloudy 10 - - - -
17/06:30am 24.5 E 17 20 1013.8 - 0.0 - Partly cloudy 10 - - - -
17/06:00am 24.2 ESE 16 19 1013.5 - 0.0 - Partly cloudy 10 - - - -
17/05:30am 23.8 ESE 16 20 1013.3 - 0.0 - Partly cloudy 10 - - - -
17/05:00am 23.8 ESE 17 19 1013.2 - 0.0 - Partly cloudy 10 - - - -
17/04:30am 23.8 ESE 18 21 1013.0 - 0.0 - Partly cloudy 10 - - - -
17/04:00am 23.9 ESE 18 21 1012.9 - 0.0 - Partly cloudy 10 - - - -
17/03:30am 23.8 ESE 17 20 1012.7 - 0.0 - Partly cloudy 10 - - - -
17/03:00am 23.9 ESE 20 22 1012.5 - 0.0 - Cloudy 10 - - - -
17/02:30am 23.9 ESE 21 25 1012.6 - 0.0 - Partly cloudy 10 - - - -
17/02:00am 24.0 E 21 24 1012.5 - 0.0 - Partly cloudy 10 - - - -
17/01:30am 23.9 E 21 26 1012.5 - 0.0 - - 10 - - - -
17/01:00am 23.9 ESE 22 25 1012.8 - 0.0 - Partly cloudy 10 - - - -
17/12:30am 23.9 ESE 23 26 1013.1 - 0.0 - Partly cloudy 10 - - - -
17/12:00am 24.1 ESE 23 26 1013.5 - 0.0 - Mostly clear 10 - - - -
 
Date/Time
EST
Temp
°C
Wind Pressure Rain since
9am
mm
Weather Cloud Vis
km
Sea
Height
m
Swell
Dir  Spd
kts
Gust
kts
hPa Trend Height
m
Period
s
Dir
16/11:30pm 24.2 ESE 22 27 1013.9 - 0.0 - Partly cloudy 10 - - - -
16/11:00pm 24.3 ESE 22 26 1014.1 - 0.0 - Partly cloudy 10 - - - -
16/10:30pm 24.3 ESE 21 25 1014.4 - 0.0 - Partly cloudy 10 - - - -
16/10:00pm 24.2 ESE 22 25 1014.5 - 0.0 - Partly cloudy 10 - - - -
16/09:30pm 24.3 ESE 21 25 1014.3 - 0.0 - Partly cloudy 10 - - - -
16/09:00pm 24.3 ESE 20 23 1014.1 - 0.0 - Partly cloudy 10 - - - -
16/08:30pm 24.3 ESE 19 22 1013.8 - 0.0 - Partly cloudy 10 - - - -
16/08:00pm 24.3 ESE 18 21 1013.8 - 0.0 - Partly cloudy 10 - - - -
16/07:30pm 24.3 ESE 16 19 1013.8 - 0.0 - Partly cloudy 10 - - - -
16/07:00pm 24.3 ESE 16 19 1013.5 - 0.0 - Partly cloudy 10 - - - -
16/06:30pm 24.3 ESE 17 21 1013.3 - 0.0 - - 10 - - - -
16/06:00pm 24.6 ESE 18 21 1013.1 - 0.0 - - 10 - - - -
16/05:30pm 24.9 ESE 18 20 1012.9 - 0.0 - Partly cloudy 10 - - - -
16/05:00pm 25.1 ESE 17 20 1012.7 - 0.0 - Partly cloudy 10 - - - -
16/04:30pm 25.4 ESE 17 20 1012.5 - 0.0 - - 10 - - - -
16/04:00pm 25.6 ESE 18 21 1012.3 - 0.0 - - 10 - - - -
16/03:30pm 25.8 ESE 18 21 1012.3 - 0.0 - - 10 - - - -
16/03:00pm 26.0 ESE 17 20 1012.4 - 0.0 - - 10 - - - -
16/02:30pm 26.2 ESE 17 19 1012.5 - 0.0 - - 10 - - - -
16/02:00pm 26.1 ESE 18 21 1012.5 - 0.0 - - 10 - - - -
16/01:30pm 26.1 E 16 18 1013.0 - 0.0 - - 10 - - - -
16/01:00pm 26.5 ESE 15 17 1013.4 - 0.0 - - 10 - - - -
16/12:30pm 26.9 ESE 15 17 1013.8 - 0.0 - - 10 - - - -
16/12:00pm 26.7 ESE 15 17 1014.1 - 0.0 - - 10 - - - -
16/11:30am 27.5 ESE 15 17 1014.5 - 0.0 - Partly cloudy 10 - - - -
16/11:00am 27.0 ESE 16 18 1014.8 - 0.0 - Partly cloudy 10 - - - -
16/10:30am 25.8 ESE 16 19 1014.8 - 0.0 - Partly cloudy 10 - - - -
16/10:00am 25.5 ESE 17 19 1014.9 - 0.0 - Partly cloudy 10 - - - -
16/09:30am 26.2 ESE 18 20 1014.9 - 0.0 - Partly cloudy 10 - - - -
16/09:00am 25.7 ESE 18 21 1014.8 - - - Cloudy 10 - - - -
16/08:30am 25.8 ESE 20 23 1014.6 - - - Partly cloudy 10 - - - -
16/08:00am 26.0 ESE 19 22 1014.4 - - - Partly cloudy 10 - - - -
16/07:30am 25.0 ESE 20 23 1014.2 - - - Partly cloudy 10 - - - -
16/07:00am 24.9 ESE 19 21 1014.0 - - - Partly cloudy 10 - - - -
16/06:30am 24.5 ESE 19 22 1013.6 - - - Partly cloudy 10 - - - -
16/06:00am 24.1 ESE 19 22 1013.3 - - - Mostly cloudy 10 - - - -
16/05:30am 23.9 ESE 20 23 1013.0 - - - Partly cloudy 10 - - - -
16/05:00am 24.0 E 19 22 1012.4 - - - Partly cloudy 10 - - - -
16/04:30am 24.0 E 19 22 1012.5 - - - Partly cloudy 10 - - - -
16/04:00am 23.9 E 19 21 1012.5 - - - Partly cloudy 10 - - - -
16/03:30am 23.7 E 16 22 1012.6 - - - Partly cloudy 10 - - - -
16/03:00am 24.0 ESE 17 20 1012.4 - 0.0 - Mostly clear 10 - - - -
16/02:30am 23.6 E 17 21 1012.6 - - - Partly cloudy 10 - - - -
16/02:00am 23.6 E 20 25 1013.0 - - - Partly cloudy 10 - - - -
16/01:30am 24.0 ESE 17 19 1013.4 - - - Partly cloudy 10 - - - -
16/01:00am 23.9 ESE 19 23 1013.6 - - - Partly cloudy 10 - - - -
16/12:30am 24.0 ESE 20 23 1013.9 - - - Partly cloudy 10 - - - -
16/12:00am 24.0 ESE 21 24 1014.3 - - - Mostly cloudy 10 - - - -
 
Date/Time
EST
Temp
°C
Wind Pressure Rain since
9am
mm
Weather Cloud Vis
km
Sea
Height
m
Swell
Dir  Spd
kts
Gust
kts
hPa Trend Height
m
Period
s
Dir
15/11:30pm 24.0 ESE 19 21 1014.5 - - - Partly cloudy 10 - - - -
15/11:00pm 23.9 ESE 18 21 1014.9 - - - Partly cloudy 10 - - - -
15/10:30pm 23.9 ESE 19 22 1014.9 - - - Partly cloudy 10 - - - -
15/10:00pm 24.0 ESE 21 24 1015.1 - - - Partly cloudy 10 - - - -
15/09:30pm 24.1 ESE 21 25 1015.2 - - - Partly cloudy 10 - - - -
15/09:00pm 24.2 ESE 21 25 1014.9 - 0.0 - Partly cloudy 10 - - - -
15/08:30pm 24.2 ESE 20 26 1014.9 - - - Partly cloudy 10 - - - -
15/08:00pm 24.3 ESE 20 23 1014.6 - - - Partly cloudy 10 - - - -
15/07:30pm 24.2 ESE 20 24 1014.2 - - - Partly cloudy 10 - - - -
15/07:00pm 24.3 ESE 19 23 1014.0 - - - - 10 - - - -
15/06:30pm 24.3 ESE 20 23 1014.0 - - - - 10 - - - -
15/06:00pm 24.4 ESE 18 21 1013.7 - - - - 10 - - - -
15/05:30pm 24.8 SE 18 20 1013.7 - - - - 10 - - - -
15/05:00pm 25.1 ESE 16 19 1013.4 - - - - 10 - - - -
15/04:30pm 25.6 ESE 15 19 1013.2 - - - - 10 - - - -
15/04:00pm 25.6 ESE 15 17 1013.0 - - - - 10 - - - -
15/03:30pm 25.9 ESE 16 18 1012.9 - - - - 10 - - - -
15/03:00pm 25.9 ESE 17 19 1013.1 - - - - 10 - - - -
15/02:30pm 25.7 ESE 17 19 1013.3 - - - - 10 - - - -
15/02:00pm 26.0 ESE 17 19 1013.7 - - - - 10 - - - -
15/01:30pm 26.6 ESE 17 20 1014.1 - - - - 10 - - - -
15/01:00pm - ESE 17 21 1014.4 - - - - 10 - - - -
15/12:00pm 26.8 ESE 17 20 1015.4 - 0.0 - - 10 - - - -
15/11:30am 25.8 ESE 17 20 1015.6 - 0.0 - - - - - - -
15/11:00am 26.4 ESE 17 20 1015.9 - 0.0 - Partly cloudy 10 - - - -
15/10:30am 25.5 ESE 17 19 1015.9 - 0.0 - Partly cloudy 10 - - - -
15/10:00am 27.6 ESE 17 19 1016.1 - 0.0 - Partly cloudy 10 - - - -
15/09:30am 26.8 ESE 18 21 1016.1 - 0.0 - Partly cloudy 10 - - - -
15/09:00am 26.7 ESE 16 19 1016.1 - 0.8 - - 10 - - - -
15/08:30am 26.2 ESE 16 18 1016.1 - 0.8 - Partly cloudy 10 - - - -
15/08:00am 25.9 ESE 17 20 1015.8 - 0.8 - Partly cloudy 10 - - - -
15/07:30am 25.6 ESE 18 21 1015.4 - 0.8 - Partly cloudy 10 - - - -

Other Formats:

Comma delimited format used in spreadsheet applications
http://www.bom.gov.au/fwo/IDQ60701/IDQ60701.94368.axf

JavaScript Object Notation format (JSON) in row-major order
http://www.bom.gov.au/fwo/IDQ60701/IDQ60701.94368.json